Time;durP1;ratioP1;P1;durP2;ratioP2;P2;SDS_P1;SDS_P2;PMS_P1;PMS_P2;Temp;Humidity;BMP_temperature;BMP_pressure;BME280_temperature;BME280_humidity;BME280_pressure;Samples;Min_cycle;Max_cycle;Signal;HPM_P1;HPM_P2
2022/09/27 00:01:11;;;;;;;5.03;0.73;;;10.30;99.90;;;;;;5017086;28;20083;-80
2022/09/27 00:03:38;;;;;;;6.68;0.70;;;10.30;99.90;;;;;;5063744;28;20075;-80
2022/09/27 00:06:08;;;;;;;3.03;0.60;;;10.30;99.90;;;;;;5036760;28;20041;-80
2022/09/27 00:08:36;;;;;;;3.55;0.57;;;10.30;99.90;;;;;;5069362;28;20041;-80
2022/09/27 00:11:05;;;;;;;2.28;0.50;;;10.20;99.90;;;;;;5053344;28;20052;-80
2022/09/27 00:13:32;;;;;;;1.90;0.45;;;10.20;99.90;;;;;;5048959;28;20509;-80
2022/09/27 00:20:08;;;;;;;5.28;0.47;;;10.10;99.90;;;;;;5067159;28;20056;-80
2022/09/27 00:22:35;;;;;;;1.55;0.40;;;10.10;99.90;;;;;;5033006;28;20501;-80
2022/09/27 00:25:04;;;;;;;9.02;0.73;;;10.10;99.90;;;;;;5033069;28;20141;-80
2022/09/27 00:27:31;;;;;;;1.98;0.40;;;10.10;99.90;;;;;;5049193;28;20490;-80
2022/09/27 00:29:57;;;;;;;7.97;0.55;;;10.10;99.90;;;;;;5016836;28;20041;-80
2022/09/27 00:32:24;;;;;;;1.40;0.47;;;10.10;99.90;;;;;;5049206;28;20042;-80
2022/09/27 00:34:51;;;;;;;3.38;0.50;;;10.10;99.90;;;;;;5046070;28;20116;-80
2022/09/27 00:37:17;;;;;;;3.22;0.50;;;10.10;99.90;;;;;;5028984;28;20088;-80
2022/09/27 00:39:44;;;;;;;0.22;0.22;;;10.10;99.90;;;;;;5012883;28;20029;-80
2022/09/27 00:42:12;;;;;;;2.67;0.50;;;10.20;99.90;;;;;;4997737;28;20088;-80
2022/09/27 00:44:38;;;;;;;3.00;0.65;;;10.00;99.90;;;;;;5013237;28;20042;-79
2022/09/27 00:47:21;;;;;;;1.73;0.50;;;10.00;99.90;;;;;;5029769;28;20893;-80
2022/09/27 00:50:00;;;;;;;5.20;0.40;;;10.00;99.90;;;;;;5030771;28;20053;-80
2022/09/27 00:52:46;;;;;;;1.63;0.57;;;10.10;99.90;;;;;;5033493;28;20862;-80
2022/09/27 00:55:20;;;;;;;1.92;0.30;;;10.00;99.90;;;;;;5052871;28;20037;-80
2022/09/27 00:57:48;;;;;;;0.82;0.35;;;10.00;99.90;;;;;;5053323;28;20056;-80
2022/09/27 01:00:15;;;;;;;4.57;0.50;;;10.10;99.90;;;;;;5053049;28;20037;-80
2022/09/27 01:02:47;;;;;;;3.58;0.30;;;10.00;99.90;;;;;;5036249;28;20087;-80
2022/09/27 01:05:16;;;;;;;0.50;0.35;;;10.00;99.90;;;;;;5069493;28;20033;-80
2022/09/27 01:07:43;;;;;;;3.92;0.60;;;10.00;99.90;;;;;;5052678;28;20048;-79
2022/09/27 01:10:10;;;;;;;1.48;0.40;;;10.00;99.90;;;;;;5036797;28;20037;-80
2022/09/27 01:13:13;;;;;;;1.05;0.47;;;10.00;99.90;;;;;;5052606;28;20041;-80
2022/09/27 01:15:56;;;;;;;2.60;0.80;;;10.00;99.90;;;;;;5052621;28;20053;-80
2022/09/27 01:18:40;;;;;;;2.42;0.40;;;10.00;99.90;;;;;;5052441;28;20060;-80
2022/09/27 01:21:09;;;;;;;4.88;0.70;;;9.90;99.90;;;;;;5052692;28;20501;-80
2022/09/27 01:24:01;;;;;;;0.82;0.40;;;9.90;99.90;;;;;;5052160;28;20138;-80
2022/09/27 01:26:41;;;;;;;1.90;0.43;;;9.90;99.90;;;;;;5052415;28;20481;-80
2022/09/27 01:29:27;;;;;;;0.82;0.30;;;9.90;99.90;;;;;;5052853;28;20041;-80
2022/09/27 01:32:25;;;;;;;1.38;0.35;;;9.90;99.90;;;;;;5052571;28;20124;-80
2022/09/27 01:35:06;;;;;;;1.23;0.25;;;9.90;99.90;;;;;;5032113;28;20095;-80
2022/09/27 01:37:51;;;;;;;1.88;0.30;;;9.90;99.90;;;;;;5032337;28;20064;-80
2022/09/27 01:40:27;;;;;;;6.80;0.65;;;9.80;99.90;;;;;;5032685;28;20449;-80
2022/09/27 01:43:05;;;;;;;1.80;0.40;;;9.80;99.90;;;;;;5049003;28;20405;-80
2022/09/27 01:45:41;;;;;;;1.48;0.50;;;9.90;99.90;;;;;;5048460;28;20092;-80
2022/09/27 01:48:21;;;;;;;2.08;0.47;;;9.80;99.90;;;;;;5048857;28;20532;-80
2022/09/27 01:51:08;;;;;;;1.58;0.60;;;9.80;99.90;;;;;;5048201;28;20041;-80
2022/09/27 01:53:49;;;;;;;1.05;0.40;;;9.80;99.90;;;;;;5048736;28;20038;-80
2022/09/27 01:56:24;;;;;;;1.58;0.70;;;9.80;99.90;;;;;;5048784;28;20041;-80
2022/09/27 01:59:08;;;;;;;0.38;0.30;;;9.70;99.90;;;;;;5048330;28;20184;-80
2022/09/27 02:01:37;;;;;;;0.77;0.30;;;9.80;99.90;;;;;;5031212;28;20128;-80
2022/09/27 02:04:07;;;;;;;3.65;0.40;;;9.70;99.90;;;;;;5032146;28;20517;-80
2022/09/27 02:06:38;;;;;;;0.75;0.30;;;9.80;99.90;;;;;;5038910;28;20122;-80
2022/09/27 02:09:17;;;;;;;2.88;0.60;;;9.80;99.90;;;;;;5051790;28;20037;-80
2022/09/27 02:11:54;;;;;;;0.57;0.32;;;9.70;99.90;;;;;;5051696;28;20041;-80
2022/09/27 02:14:23;;;;;;;2.33;0.68;;;9.80;99.90;;;;;;5051664;28;20065;-80
2022/09/27 02:16:58;;;;;;;2.83;0.70;;;9.70;99.90;;;;;;5051168;28;20044;-80
2022/09/27 02:19:49;;;;;;;1.45;0.38;;;9.70;99.90;;;;;;5051627;28;20489;-80
2022/09/27 02:22:27;;;;;;;1.58;0.47;;;9.70;99.90;;;;;;5051957;28;20045;-80
2022/09/27 02:25:06;;;;;;;5.18;0.77;;;9.70;99.90;;;;;;5067573;28;20042;-80
2022/09/27 02:27:39;;;;;;;3.70;0.60;;;9.70;99.90;;;;;;5050790;28;20048;-80
2022/09/27 02:30:10;;;;;;;0.93;0.45;;;9.70;99.90;;;;;;5051336;28;20045;-80
2022/09/27 02:32:38;;;;;;;0.77;0.40;;;9.70;99.90;;;;;;5051001;28;20631;-80
2022/09/27 02:35:18;;;;;;;1.63;0.50;;;9.70;99.90;;;;;;5035235;28;20029;-80
2022/09/27 02:37:46;;;;;;;0.77;0.17;;;9.70;99.90;;;;;;5067101;28;20049;-80
2022/09/27 02:40:13;;;;;;;1.63;0.35;;;9.70;99.90;;;;;;5018761;28;20037;-80
2022/09/27 02:42:41;;;;;;;1.85;0.55;;;9.60;99.90;;;;;;5050958;28;20037;-80
2022/09/27 02:45:10;;;;;;;7.70;0.60;;;9.70;99.90;;;;;;5051377;28;20037;-80
2022/09/27 02:47:58;;;;;;;3.25;0.50;;;9.70;99.90;;;;;;5018597;28;20045;-80
2022/09/27 02:50:27;;;;;;;2.85;0.40;;;9.60;99.90;;;;;;5031369;28;20053;-80
2022/09/27 02:53:11;;;;;;;6.03;0.55;;;9.60;99.90;;;;;;5030889;28;20192;-80
2022/09/27 02:55:49;;;;;;;3.22;0.45;;;9.60;99.90;;;;;;5030875;28;20245;-80
2022/09/27 02:58:43;;;;;;;3.90;0.60;;;9.60;99.90;;;;;;5063887;28;20077;-80
2022/09/27 03:01:33;;;;;;;2.30;0.55;;;9.60;99.90;;;;;;5031028;28;20056;-80
2022/09/27 03:04:44;;;;;;;4.63;0.60;;;9.60;99.90;;;;;;5030994;28;20096;-79
2022/09/27 03:07:13;;;;;;;5.65;0.40;;;9.60;99.90;;;;;;5016197;28;20042;-80
2022/09/27 03:09:44;;;;;;;1.35;0.40;;;9.50;99.90;;;;;;5047240;28;20045;-80
2022/09/27 03:12:10;;;;;;;0.75;0.40;;;9.60;99.90;;;;;;5030938;28;20038;-80
2022/09/27 03:14:37;;;;;;;1.52;0.47;;;9.60;99.90;;;;;;5030293;28;20058;-81
2022/09/27 03:17:04;;;;;;;1.27;0.40;;;9.50;99.90;;;;;;5014546;28;20050;-80
2022/09/27 03:19:31;;;;;;;2.35;0.50;;;9.50;99.90;;;;;;5014528;28;20042;-80
2022/09/27 03:21:57;;;;;;;2.40;0.50;;;9.50;99.90;;;;;;5030542;28;20041;-80
2022/09/27 03:24:24;;;;;;;3.00;0.55;;;9.50;99.90;;;;;;5030355;28;20067;-80
2022/09/27 03:26:51;;;;;;;4.18;0.52;;;9.50;99.90;;;;;;5013983;28;20460;-80
2022/09/27 03:29:17;;;;;;;3.03;0.55;;;9.50;99.90;;;;;;5014330;28;20513;-80
2022/09/27 03:31:44;;;;;;;1.50;0.38;;;9.50;99.90;;;;;;5044728;28;20037;-81
2022/09/27 03:34:11;;;;;;;1.08;0.38;;;9.50;99.90;;;;;;5033654;28;20064;-80
2022/09/27 03:36:37;;;;;;;0.35;0.22;;;10.00;99.90;;;;;;5017590;28;20052;-80
2022/09/27 03:39:04;;;;;;;1.10;0.30;;;9.40;99.90;;;;;;5017521;28;20034;-80
2022/09/27 03:41:31;;;;;;;1.95;0.32;;;9.40;99.90;;;;;;5014129;28;20037;-80
2022/09/27 03:43:58;;;;;;;1.95;0.55;;;9.40;99.90;;;;;;4998099;28;20553;-80
2022/09/27 03:46:25;;;;;;;1.83;0.50;;;9.30;99.90;;;;;;5046690;28;20068;-80
2022/09/27 03:48:52;;;;;;;2.08;0.73;;;9.30;99.90;;;;;;5017195;28;20532;-80
2022/09/27 03:51:19;;;;;;;2.03;0.57;;;9.30;99.90;;;;;;5014538;28;20045;-80
2022/09/27 03:53:45;;;;;;;3.42;0.57;;;9.30;99.90;;;;;;5006298;28;20501;-80
2022/09/27 03:56:12;;;;;;;2.42;0.60;;;9.30;99.90;;;;;;5033762;28;20033;-80
2022/09/27 03:58:39;;;;;;;5.72;0.60;;;9.30;99.90;;;;;;5017485;28;20033;-80
2022/09/27 04:01:06;;;;;;;0.70;0.40;;;9.30;99.90;;;;;;5033200;28;20049;-80
2022/09/27 04:03:34;;;;;;;2.30;0.45;;;9.30;99.90;;;;;;5033687;28;20042;-80
2022/09/27 04:06:02;;;;;;;0.70;0.30;;;9.30;99.90;;;;;;5017402;28;20034;-80
2022/09/27 04:08:29;;;;;;;1.95;0.40;;;9.30;99.90;;;;;;5017310;28;20382;-80
2022/09/27 04:10:56;;;;;;;0.52;0.40;;;9.40;99.90;;;;;;5033354;28;20136;-80
2022/09/27 04:13:23;;;;;;;1.15;0.40;;;9.30;99.90;;;;;;5029565;28;20046;-80
2022/09/27 04:15:50;;;;;;;1.08;0.40;;;9.30;99.90;;;;;;5013296;28;20501;-80
2022/09/27 04:18:17;;;;;;;4.22;0.52;;;9.30;99.90;;;;;;5030039;28;20030;-80
2022/09/27 04:20:44;;;;;;;1.27;0.40;;;9.30;99.90;;;;;;5013393;28;20153;-80
2022/09/27 04:23:10;;;;;;;1.40;0.50;;;9.30;99.90;;;;;;5013223;28;20402;-80
2022/09/27 04:25:38;;;;;;;2.53;0.60;;;9.30;99.90;;;;;;5035218;28;20483;-80
2022/09/27 04:28:05;;;;;;;2.10;0.55;;;9.30;99.90;;;;;;5003995;28;20041;-80
2022/09/27 04:30:32;;;;;;;7.55;0.75;;;9.20;99.90;;;;;;5020016;28;20100;-80
2022/09/27 04:32:58;;;;;;;3.00;0.28;;;9.20;99.90;;;;;;5019554;28;20038;-80
2022/09/27 04:38:10;;;;;;;3.33;0.55;;;9.30;99.90;;;;;;5044379;28;20482;-80
2022/09/27 04:40:37;;;;;;;1.15;0.30;;;9.20;99.90;;;;;;5023425;28;20044;-79
2022/09/27 04:43:03;;;;;;;2.90;0.40;;;9.20;99.90;;;;;;5039778;28;20053;-79
2022/09/27 04:45:30;;;;;;;2.83;0.50;;;9.20;99.90;;;;;;5019823;28;20088;-80
2022/09/27 04:47:57;;;;;;;5.28;0.40;;;9.20;99.90;;;;;;5035797;28;20084;-80
2022/09/27 04:50:24;;;;;;;10.35;0.43;;;9.20;99.90;;;;;;5019909;28;20046;-80
2022/09/27 04:52:52;;;;;;;3.53;0.55;;;9.10;99.90;;;;;;5019834;28;20042;-80
2022/09/27 04:55:20;;;;;;;1.92;0.30;;;9.20;99.90;;;;;;5036536;28;20128;-80
2022/09/27 04:57:48;;;;;;;4.80;0.40;;;9.20;99.90;;;;;;5052431;28;20050;-80
2022/09/27 05:00:16;;;;;;;4.38;0.57;;;9.20;99.90;;;;;;5036013;28;20034;-80
2022/09/27 05:02:43;;;;;;;2.13;0.60;;;9.10;99.90;;;;;;5035998;28;20038;-80
2022/09/27 05:05:10;;;;;;;3.00;0.60;;;9.20;99.90;;;;;;5038724;28;20037;-80
2022/09/27 05:07:38;;;;;;;2.47;0.57;;;9.50;99.90;;;;;;5055423;28;20048;-80
2022/09/27 05:10:06;;;;;;;1.55;0.52;;;9.20;99.90;;;;;;5055663;28;20100;-80
2022/09/27 05:12:32;;;;;;;1.38;0.40;;;9.20;99.90;;;;;;5055458;28;20048;-80
2022/09/27 05:14:59;;;;;;;1.08;0.40;;;9.20;99.90;;;;;;5022284;28;20053;-80
2022/09/27 05:17:26;;;;;;;0.43;0.30;;;9.10;99.90;;;;;;5055389;28;20102;-80
2022/09/27 05:19:53;;;;;;;2.47;0.57;;;9.20;99.90;;;;;;5039299;28;20083;-80
2022/09/27 05:22:19;;;;;;;3.63;0.73;;;9.60;99.90;;;;;;5022367;28;20076;-80
2022/09/27 05:24:46;;;;;;;5.32;0.65;;;9.10;99.90;;;;;;5038964;28;20042;-80
2022/09/27 05:27:17;;;;;;;2.58;0.63;;;9.20;99.90;;;;;;5034762;28;20044;-80
2022/09/27 05:29:44;;;;;;;1.33;0.45;;;9.10;99.90;;;;;;5035477;28;20049;-80
2022/09/27 05:32:12;;;;;;;5.57;0.47;;;9.10;99.90;;;;;;5018871;28;20049;-80
2022/09/27 05:34:38;;;;;;;1.80;0.40;;;9.10;99.90;;;;;;5035511;28;20096;-80
2022/09/27 05:37:05;;;;;;;1.65;0.40;;;9.20;99.90;;;;;;5019328;28;20033;-80
2022/09/27 05:39:32;;;;;;;2.13;0.50;;;9.10;99.90;;;;;;5038856;28;20038;-79
2022/09/27 05:41:59;;;;;;;1.15;0.30;;;9.10;99.90;;;;;;5038330;28;20048;-80
2022/09/27 05:44:25;;;;;;;2.30;0.45;;;9.10;99.90;;;;;;5019958;28;20092;-80
2022/09/27 05:46:52;;;;;;;1.00;0.30;;;9.10;99.90;;;;;;5051886;28;20144;-80
2022/09/27 05:49:19;;;;;;;1.05;0.40;;;9.10;99.90;;;;;;5035368;28;20077;-80
2022/09/27 05:51:46;;;;;;;1.45;0.43;;;9.10;99.90;;;;;;5019448;28;20513;-80
2022/09/27 05:54:13;;;;;;;0.17;0.17;;;9.20;99.90;;;;;;5020114;28;20042;-80
2022/09/27 05:56:39;;;;;;;2.55;0.30;;;9.20;99.90;;;;;;5017149;28;20048;-80
2022/09/27 05:59:06;;;;;;;1.80;0.50;;;9.20;99.90;;;;;;5019170;28;20041;-80
2022/09/27 06:01:34;;;;;;;2.45;0.35;;;9.10;99.90;;;;;;5019152;28;20095;-80
2022/09/27 06:04:03;;;;;;;5.82;0.57;;;9.10;99.90;;;;;;5019784;28;20044;-80
2022/09/27 06:06:33;;;;;;;3.58;0.30;;;9.10;99.90;;;;;;5035709;28;20037;-80
2022/09/27 06:09:00;;;;;;;1.73;0.60;;;9.20;99.90;;;;;;5035781;28;20037;-80
2022/09/27 06:11:26;;;;;;;0.32;0.30;;;9.10;99.90;;;;;;5051473;28;20081;-80
2022/09/27 06:13:53;;;;;;;2.55;0.45;;;9.20;99.90;;;;;;5018743;28;20146;-80
2022/09/27 06:16:20;;;;;;;3.17;0.38;;;9.20;99.90;;;;;;5034689;28;20046;-79
2022/09/27 06:18:47;;;;;;;1.48;0.50;;;9.20;99.90;;;;;;5010088;28;20487;-80
2022/09/27 06:21:13;;;;;;;1.35;0.40;;;9.20;99.90;;;;;;5051089;28;20065;-80
2022/09/27 06:23:40;;;;;;;2.15;0.40;;;9.30;99.90;;;;;;5051128;28;20120;-80
2022/09/27 06:26:07;;;;;;;1.55;0.43;;;9.20;99.90;;;;;;5034783;28;20126;-80
2022/09/27 06:28:34;;;;;;;0.90;0.38;;;9.30;99.90;;;;;;5034882;28;20048;-80
2022/09/27 06:31:01;;;;;;;3.90;0.30;;;9.30;99.90;;;;;;5019159;28;20073;-79
2022/09/27 06:33:28;;;;;;;1.25;0.13;;;9.30;99.90;;;;;;5014909;28;20519;-79
2022/09/27 06:35:54;;;;;;;3.60;0.60;;;9.30;99.90;;;;;;5015186;28;20124;-80
2022/09/27 06:38:23;;;;;;;2.25;0.52;;;9.30;99.90;;;;;;5031250;28;20554;-80
2022/09/27 06:40:50;;;;;;;0.10;0.10;;;9.30;99.90;;;;;;5030328;28;20080;-80
2022/09/27 06:43:19;;;;;;;3.30;0.50;;;9.30;99.90;;;;;;5084006;28;20045;-80
2022/09/27 06:45:46;;;;;;;1.60;0.30;;;9.30;99.90;;;;;;5034865;28;20189;-80
2022/09/27 06:48:15;;;;;;;0.40;0.20;;;9.30;99.90;;;;;;5031401;28;20073;-80
2022/09/27 06:50:44;;;;;;;1.55;0.55;;;9.40;99.90;;;;;;5042106;28;20049;-80
2022/09/27 06:53:13;;;;;;;3.00;0.40;;;9.40;99.90;;;;;;5050820;28;20620;-80
2022/09/27 06:55:40;;;;;;;2.30;0.50;;;9.40;99.90;;;;;;5060016;28;20038;-80
2022/09/27 07:00:55;;;;;;;0.98;0.20;;;9.50;99.90;;;;;;5067221;28;20037;-80
2022/09/27 07:03:22;;;;;;;0.43;0.20;;;9.50;99.90;;;;;;5018100;28;20041;-80
2022/09/27 07:05:57;;;;;;;1.52;0.45;;;9.50;99.90;;;;;;5030587;28;20053;-80
2022/09/27 07:08:27;;;;;;;2.22;0.40;;;9.50;99.90;;;;;;5028208;28;20041;-80
2022/09/27 07:11:15;;;;;;;1.15;0.43;;;9.60;99.90;;;;;;5067053;28;20041;-80
2022/09/27 07:13:42;;;;;;;2.97;0.68;;;9.60;99.90;;;;;;5050090;28;20513;-80
2022/09/27 07:16:13;;;;;;;1.80;0.70;;;9.60;99.90;;;;;;5014669;28;20066;-80
2022/09/27 07:18:40;;;;;;;3.40;0.70;;;9.50;99.90;;;;;;5042245;28;20506;-80
2022/09/27 07:21:08;;;;;;;1.10;0.43;;;9.50;99.90;;;;;;5014561;28;20084;-80
2022/09/27 07:23:35;;;;;;;1.95;0.60;;;9.50;99.90;;;;;;5030477;28;20084;-80
2022/09/27 07:26:05;;;;;;;1.65;0.60;;;9.50;99.90;;;;;;5015869;28;20490;-80
2022/09/27 07:28:33;;;;;;;1.52;0.55;;;9.60;99.90;;;;;;5012229;28;20089;-80
2022/09/27 07:31:01;;;;;;;4.15;0.70;;;9.50;99.90;;;;;;5033052;28;20422;-80
2022/09/27 07:33:28;;;;;;;2.45;0.47;;;9.50;99.90;;;;;;5026407;28;20402;-80
2022/09/27 07:35:55;;;;;;;5.03;0.70;;;9.50;99.90;;;;;;5014778;28;20034;-80
2022/09/27 07:38:22;;;;;;;3.00;0.70;;;9.60;99.90;;;;;;5046784;28;20088;-80
2022/09/27 07:40:49;;;;;;;1.83;0.40;;;9.60;99.90;;;;;;5046850;28;20037;-80
2022/09/27 07:43:16;;;;;;;2.17;0.45;;;9.70;99.90;;;;;;5054993;28;20121;-80
2022/09/27 07:45:43;;;;;;;3.72;0.52;;;9.70;99.90;;;;;;5046756;28;20073;-80
2022/09/27 07:48:13;;;;;;;1.20;0.35;;;9.70;99.90;;;;;;5030904;28;20442;-80
2022/09/27 07:50:40;;;;;;;4.57;0.50;;;9.70;99.90;;;;;;5046964;28;20116;-80
2022/09/27 07:53:11;;;;;;;3.20;0.55;;;9.70;99.90;;;;;;5045173;28;20120;-80
2022/09/27 07:55:38;;;;;;;1.98;0.40;;;9.80;99.90;;;;;;5033810;28;20048;-80
2022/09/27 07:58:10;;;;;;;1.27;0.38;;;9.90;99.90;;;;;;5056215;28;20029;-80
2022/09/27 08:00:39;;;;;;;0.85;0.38;;;9.90;99.90;;;;;;5029003;28;20073;-80
2022/09/27 08:03:07;;;;;;;6.55;0.63;;;10.00;99.90;;;;;;5056264;28;20045;-80
2022/09/27 08:05:35;;;;;;;0.82;0.32;;;9.90;99.90;;;;;;5029977;28;20510;-80
2022/09/27 08:08:03;;;;;;;4.60;0.50;;;10.00;99.90;;;;;;5040416;28;20048;-80
2022/09/27 08:10:31;;;;;;;2.08;0.55;;;10.00;99.90;;;;;;5033444;28;20037;-79
2022/09/27 08:13:00;;;;;;;2.53;0.50;;;10.00;99.90;;;;;;5024265;28;20037;-79
2022/09/27 08:15:27;;;;;;;2.60;0.98;;;10.10;99.90;;;;;;5060219;28;20091;-79
2022/09/27 08:17:54;;;;;;;5.05;2.00;;;10.00;99.90;;;;;;5014447;28;20497;-80
2022/09/27 08:20:21;;;;;;;1.17;0.52;;;10.00;99.90;;;;;;5061115;28;20451;-80
2022/09/27 08:22:48;;;;;;;3.03;0.68;;;10.10;99.90;;;;;;5022465;28;20034;-79
2022/09/27 08:25:15;;;;;;;6.70;1.40;;;10.10;99.90;;;;;;5041534;28;20787;-80
2022/09/27 08:27:42;;;;;;;2.05;0.63;;;10.10;99.90;;;;;;5017194;28;20041;-79
2022/09/27 08:30:09;;;;;;;4.55;0.85;;;10.10;99.90;;;;;;5034042;28;20037;-79
2022/09/27 08:32:37;;;;;;;2.75;0.90;;;10.10;99.90;;;;;;5035235;28;20087;-79
2022/09/27 08:35:06;;;;;;;0.85;0.47;;;10.20;99.90;;;;;;5053628;28;20047;-80
2022/09/27 08:37:32;;;;;;;6.07;0.70;;;10.30;99.90;;;;;;5068076;28;20451;-79
2022/09/27 08:39:59;;;;;;;3.30;1.23;;;10.30;99.90;;;;;;5020382;28;20044;-79
2022/09/27 08:42:45;;;;;;;4.03;0.75;;;10.40;99.90;;;;;;5019530;28;20520;-79
2022/09/27 08:45:27;;;;;;;3.55;0.70;;;10.50;99.90;;;;;;5044814;28;20033;-79
2022/09/27 08:48:03;;;;;;;4.82;0.90;;;10.50;99.90;;;;;;5052674;28;20048;-79
2022/09/27 08:50:34;;;;;;;0.88;0.60;;;10.60;99.90;;;;;;5043607;28;20423;-79
2022/09/27 08:53:13;;;;;;;1.33;0.60;;;10.60;99.90;;;;;;5045906;28;20124;-82
2022/09/27 08:55:46;;;;;;;2.80;0.50;;;10.60;99.90;;;;;;5048812;28;20390;-80
2022/09/27 08:58:28;;;;;;;3.75;0.90;;;10.60;99.90;;;;;;5042585;28;20069;-79
2022/09/27 09:00:59;;;;;;;1.05;0.50;;;10.60;99.90;;;;;;5038022;28;20105;-79
2022/09/27 09:03:28;;;;;;;1.30;0.65;;;10.70;99.90;;;;;;5051786;28;20464;-80
2022/09/27 09:06:15;;;;;;;3.80;0.60;;;10.80;99.90;;;;;;5060262;28;20037;-81
2022/09/27 09:09:06;;;;;;;0.75;0.52;;;10.90;99.90;;;;;;5067003;28;20508;-80
2022/09/27 09:14:53;;;;;;;2.83;0.70;;;11.10;99.90;;;;;;5054237;28;20046;-80
2022/09/27 09:17:48;;;;;;;1.73;0.50;;;11.20;99.90;;;;;;5066159;28;20080;-80
2022/09/27 09:20:24;;;;;;;2.72;0.40;;;11.30;99.90;;;;;;5045598;28;20068;-81
2022/09/27 09:23:18;;;;;;;0.50;0.30;;;11.40;99.90;;;;;;5055088;28;20542;-80
2022/09/27 09:26:14;;;;;;;2.33;0.47;;;11.50;99.90;;;;;;5050281;28;20067;-80
2022/09/27 09:29:02;;;;;;;0.47;0.30;;;11.30;99.90;;;;;;5057454;28;20132;-81
2022/09/27 09:31:43;;;;;;;2.13;0.60;;;11.60;99.90;;;;;;5049608;28;20033;-80
2022/09/27 09:34:20;;;;;;;1.13;0.40;;;11.70;99.90;;;;;;5096528;28;20047;-80
2022/09/27 09:36:55;;;;;;;2.90;0.57;;;11.70;99.90;;;;;;5051528;28;20033;-80
2022/09/27 09:39:56;;;;;;;1.35;0.35;;;11.50;99.90;;;;;;5041602;28;20044;-80
2022/09/27 09:42:30;;;;;;;0.88;0.50;;;11.50;99.90;;;;;;5055874;28;20029;-80
2022/09/27 09:45:12;;;;;;;1.60;0.32;;;11.40;99.90;;;;;;5049918;28;20450;-80
2022/09/27 09:47:53;;;;;;;0.90;0.40;;;11.40;99.90;;;;;;5041061;28;20045;-80
2022/09/27 09:50:28;;;;;;;1.50;0.43;;;11.40;99.90;;;;;;5054663;28;20045;-82
2022/09/27 09:53:04;;;;;;;8.23;1.10;;;11.40;99.90;;;;;;5059192;28;20044;-80
2022/09/27 09:55:35;;;;;;;0.90;0.50;;;11.50;99.90;;;;;;5055078;28;20075;-81
2022/09/27 09:58:13;;;;;;;0.60;0.50;;;11.60;99.90;;;;;;5025458;28;20045;-80
2022/09/27 10:00:42;;;;;;;2.08;0.50;;;11.70;99.90;;;;;;5034827;28;20037;-80
2022/09/27 10:03:08;;;;;;;2.42;0.17;;;11.70;99.90;;;;;;5035667;28;20033;-80
2022/09/27 10:05:35;;;;;;;1.65;0.17;;;11.80;99.90;;;;;;5054135;28;20119;-82
2022/09/27 10:08:06;;;;;;;2.47;0.30;;;11.90;99.90;;;;;;5050226;28;20102;-82
2022/09/27 10:10:33;;;;;;;2.20;0.50;;;12.00;99.90;;;;;;5044041;28;20493;-83
2022/09/27 10:13:02;;;;;;;2.33;0.45;;;12.10;99.90;;;;;;5050421;28;20041;-83
2022/09/27 10:15:30;;;;;;;2.85;0.50;;;12.10;99.90;;;;;;5038314;28;20051;-83
2022/09/27 10:17:58;;;;;;;1.88;0.45;;;12.30;99.90;;;;;;5070874;28;20045;-82
2022/09/27 10:20:40;;;;;;;1.05;0.40;;;12.40;99.90;;;;;;5054576;28;20072;-83
2022/09/27 10:23:18;;;;;;;1.35;0.32;;;12.60;99.90;;;;;;5070439;28;20029;-83
2022/09/27 10:25:52;;;;;;;0.70;0.20;;;12.60;99.90;;;;;;5050742;28;20401;-82
2022/09/27 10:28:31;;;;;;;0.40;0.30;;;12.40;99.90;;;;;;5045853;28;20033;-82
2022/09/27 10:31:07;;;;;;;1.40;0.50;;;12.60;99.90;;;;;;5042270;28;20038;-82
2022/09/27 10:33:38;;;;;;;1.13;0.50;;;12.60;99.90;;;;;;5043227;28;20041;-82
2022/09/27 10:36:28;;;;;;;1.42;0.30;;;12.70;99.90;;;;;;5048556;28;20048;-82
2022/09/27 10:38:57;;;;;;;0.80;0.55;;;12.70;99.90;;;;;;5053268;28;20040;-82
2022/09/27 10:41:30;;;;;;;0.60;0.32;;;12.60;99.90;;;;;;5040077;28;20037;-82
2022/09/27 10:44:17;;;;;;;0.50;0.20;;;12.50;99.90;;;;;;5055819;28;20045;-82
2022/09/27 10:46:47;;;;;;;1.20;0.30;;;12.40;99.90;;;;;;5033129;28;20033;-82
2022/09/27 10:49:33;;;;;;;0.88;0.30;;;12.30;99.90;;;;;;5052324;28;20052;-81
2022/09/27 10:52:04;;;;;;;0.55;0.20;;;12.20;99.90;;;;;;5042354;28;20037;-81
2022/09/27 10:54:37;;;;;;;1.83;0.35;;;12.10;99.90;;;;;;5054086;28;20037;-81
2022/09/27 10:57:14;;;;;;;0.30;0.20;;;11.80;99.90;;;;;;5053718;28;20549;-81
2022/09/27 10:59:51;;;;;;;0.68;0.40;;;11.70;99.90;;;;;;5053593;28;20043;-81
2022/09/27 11:02:23;;;;;;;0.32;0.17;;;11.60;99.90;;;;;;5054056;28;20478;-81
2022/09/27 11:05:35;;;;;;;0.20;0.20;;;11.40;99.90;;;;;;5069674;28;20049;-81
2022/09/27 11:08:22;;;;;;;0.10;0.10;;;11.10;99.90;;;;;;5049957;28;20051;-81
2022/09/27 11:11:08;;;;;;;0.17;0.17;;;11.20;99.90;;;;;;5069710;28;20128;-81
2022/09/27 11:13:34;;;;;;;0.30;0.20;;;11.10;99.90;;;;;;5053223;28;20053;-81
2022/09/27 11:16:27;;;;;;;0.10;0.00;;;11.10;99.90;;;;;;5017334;28;20045;-80
2022/09/27 11:19:03;;;;;;;0.85;0.10;;;11.10;99.90;;;;;;5042143;28;20033;-81
2022/09/27 11:21:31;;;;;;;0.20;0.20;;;11.00;99.90;;;;;;5037815;28;20048;-81
2022/09/27 11:24:26;;;;;;;0.73;0.30;;;11.10;99.90;;;;;;5053337;28;20133;-80
2022/09/27 11:27:04;;;;;;;0.55;0.30;;;11.10;99.90;;;;;;5046108;28;20048;-80
2022/09/27 11:29:52;;;;;;;0.95;0.32;;;11.20;99.90;;;;;;5097421;28;20126;-81
2022/09/27 11:32:48;;;;;;;0.38;0.30;;;11.20;99.90;;;;;;5044832;28;20653;-81
2022/09/27 11:35:43;;;;;;;1.65;0.45;;;11.20;99.90;;;;;;5064506;28;20776;-80
2022/09/27 11:38:27;;;;;;;0.52;0.30;;;11.30;99.90;;;;;;5039875;28;20069;-80
2022/09/27 11:41:02;;;;;;;2.75;0.40;;;11.40;99.90;;;;;;5046165;28;20436;-81
2022/09/27 11:43:38;;;;;;;;;;;11.60;99.90;;;;;;5053217;28;20037;-81
2022/09/27 11:46:31;;;;;;;0.35;0.28;;;11.70;99.90;;;;;;5050961;28;19916;-81
2022/09/27 11:49:00;;;;;;;2.05;0.88;;;11.80;99.90;;;;;;5042779;28;20048;-81
2022/09/27 11:51:51;;;;;;;2.85;0.30;;;11.80;99.90;;;;;;5053003;28;20048;-81
2022/09/27 11:54:44;;;;;;;5.03;2.70;;;11.80;99.90;;;;;;5034781;28;20439;-81
2022/09/27 11:57:22;;;;;;;4.38;2.00;;;12.00;99.90;;;;;;5026536;28;20146;-81
2022/09/27 11:59:52;;;;;;;1.05;0.40;;;12.20;99.90;;;;;;5047690;28;20798;-81
2022/09/27 12:02:21;;;;;;;2.88;0.68;;;12.20;99.90;;;;;;5045419;28;20037;-81
2022/09/27 12:04:54;;;;;;;2.75;1.38;;;12.30;99.90;;;;;;5049180;28;20481;-81
2022/09/27 12:07:23;;;;;;;0.63;0.30;;;12.50;99.90;;;;;;5033299;28;20049;-81
2022/09/27 12:09:55;;;;;;;2.05;0.80;;;12.60;99.90;;;;;;5039213;28;20040;-81
2022/09/27 12:12:26;;;;;;;0.40;0.40;;;12.60;99.90;;;;;;5069326;28;20047;-81
2022/09/27 12:15:03;;;;;;;0.95;0.25;;;12.60;99.90;;;;;;5052310;28;20074;-81
2022/09/27 12:17:34;;;;;;;1.85;0.47;;;12.50;99.90;;;;;;5039303;28;20116;-80
2022/09/27 12:20:27;;;;;;;0.10;0.10;;;12.40;99.90;;;;;;5037753;28;20033;-80
2022/09/27 12:23:04;;;;;;;0.93;0.32;;;12.50;99.90;;;;;;5037415;28;20521;-81
2022/09/27 12:25:36;;;;;;;0.75;0.50;;;12.60;99.90;;;;;;5050461;28;20519;-78
2022/09/27 12:28:32;;;;;;;1.60;0.20;;;12.60;99.90;;;;;;5046149;28;20033;-80
2022/09/27 12:31:07;;;;;;;3.53;0.65;;;12.50;99.90;;;;;;5045141;28;20041;-80
2022/09/27 12:33:52;;;;;;;0.32;0.13;;;12.50;99.90;;;;;;5069489;28;20056;-79
2022/09/27 12:36:22;;;;;;;0.52;0.20;;;12.40;99.90;;;;;;5052642;28;20093;-79
2022/09/27 12:39:04;;;;;;;3.17;0.70;;;12.40;99.90;;;;;;5052641;28;20386;-79
2022/09/27 12:41:36;;;;;;;1.23;0.20;;;12.40;99.90;;;;;;5052936;28;20033;-79
2022/09/27 12:44:02;;;;;;;0.40;0.28;;;12.30;99.90;;;;;;5044430;28;20033;-79
2022/09/27 12:47:02;;;;;;;0.52;0.40;;;12.30;99.90;;;;;;5036140;28;20489;-79
2022/09/27 12:49:52;;;;;;;1.45;0.20;;;12.30;99.90;;;;;;5056548;28;20377;-78
2022/09/27 12:52:27;;;;;;;2.40;0.30;;;12.00;99.90;;;;;;5056592;28;20471;-79
2022/09/27 12:55:07;;;;;;;1.15;0.40;;;12.10;99.90;;;;;;5056090;28;20052;-79
2022/09/27 12:58:15;;;;;;;13.00;5.57;;;12.10;99.90;;;;;;5061905;28;20046;-80
2022/09/27 13:00:51;;;;;;;0.82;0.30;;;12.10;99.90;;;;;;5049065;28;20051;-80
2022/09/27 13:03:24;;;;;;;0.15;0.15;;;12.10;99.90;;;;;;5044530;28;20032;-80
2022/09/27 13:06:32;;;;;;;0.15;0.10;;;11.90;99.90;;;;;;5049472;28;20033;-80
2022/09/27 13:09:17;;;;;;;0.00;0.00;;;11.90;99.90;;;;;;4982321;28;20039;-79
2022/09/27 13:12:11;;;;;;;0.32;0.13;;;11.90;99.90;;;;;;4971473;28;20082;-80
2022/09/27 13:14:45;;;;;;;0.10;0.10;;;11.80;99.90;;;;;;5025373;28;20390;-79
2022/09/27 13:17:52;;;;;;;0.20;0.10;;;11.80;99.90;;;;;;5066143;28;20667;-80
2022/09/27 13:20:33;;;;;;;0.88;0.20;;;11.90;99.90;;;;;;5051531;28;20042;-80
2022/09/27 13:23:20;;;;;;;0.22;0.10;;;11.90;99.90;;;;;;5053823;28;20037;-80
2022/09/27 13:26:03;;;;;;;1.33;0.20;;;11.80;99.90;;;;;;5052317;28;20488;-79
2022/09/27 13:28:32;;;;;;;1.25;0.20;;;11.80;99.90;;;;;;5037199;28;20041;-80
2022/09/27 13:31:10;;;;;;;2.28;0.35;;;11.70;99.90;;;;;;5037048;28;20512;-80
2022/09/27 13:33:48;;;;;;;0.30;0.10;;;11.60;99.90;;;;;;5041319;28;20050;-78
2022/09/27 13:36:15;;;;;;;5.60;2.03;;;11.70;99.90;;;;;;5055101;28;20045;-79
2022/09/27 13:39:04;;;;;;;11.70;4.63;;;11.70;99.90;;;;;;5055207;28;20040;-80